Meteorología y climatología de Navarra
Datos de la estación - Meteo Navarra

Estación de Bera (Larrategaña) GN

Altitud 306 m.


Datos desde el 16/09/2020 hasta el 17/09/2020 en horario solar
Los datos son PROVISIONALES

Anterior Página 1 de 1 Siguiente Descargar: Formato para Excel 2000 o superior   Formato csv   Formato para OpenOffice Calc
Fecha Temperatura Humedad relativa Radiación global Insolación Precipitación Vel. viento 10 m Vel. viento 10 m Dir. viento 10 m
ºC % W/m² s l/m² m/s km/h º
16/09/2020 0:00 18.0 87 0.0 0 0.0 1.4 5.1 228
16/09/2020 0:10 18.0 86 0.0 0 0.0 1.5 5.5 234
16/09/2020 0:20 18.1 85 0.0 0 0.0 2.0 7.3 240
16/09/2020 0:30 17.9 86 0.0 0 0.0 2.0 7.0 241
16/09/2020 0:40 18.1 84 0.0 0 0.0 1.6 5.8 242
16/09/2020 0:50 17.9 86 0.0 0 0.0 1.1 4.0 232
16/09/2020 1:00 17.5 88 0.0 0 0.0 1.5 5.4 232
16/09/2020 1:10 16.9 91 0.0 0 0.0 2.6 9.2 241
16/09/2020 1:20 17.2 90 0.0 0 0.0 2.4 8.8 242
16/09/2020 1:30 17.1 90 0.0 0 0.0 1.9 6.7 242
16/09/2020 1:40 17.1 90 0.0 0 0.0 1.6 5.8 249
16/09/2020 1:50 17.1 90 0.0 0 0.0 2.4 8.6 240
16/09/2020 2:00 16.9 91 0.0 0 0.0 2.3 8.4 236
16/09/2020 2:10 16.6 93 0.0 0 0.0 2.5 8.8 236
16/09/2020 2:20 16.5 94 0.0 0 0.0 2.5 9.1 238
16/09/2020 2:30 16.3 94 0.0 0 0.0 2.4 8.7 238
16/09/2020 2:40 16.3 95 0.0 0 0.0 2.5 9.1 236
16/09/2020 2:50 16.3 95 0.0 0 0.0 2.3 8.3 234
16/09/2020 3:00 16.2 95 0.0 0 0.0 2.0 7.1 245
16/09/2020 3:10 16.3 94 0.0 0 0.0 2.0 7.2 242
16/09/2020 3:20 16.1 95 0.0 0 0.0 2.5 9.0 236
16/09/2020 3:30 16.0 96 0.0 0 0.0 2.1 7.7 238
16/09/2020 3:40 16.0 96 0.0 0 0.0 1.8 6.6 240
16/09/2020 3:50 15.9 96 0.0 0 0.0 2.1 7.7 235
16/09/2020 4:00 15.9 96 0.0 0 0.0 2.5 9.1 238
16/09/2020 4:10 15.9 97 0.0 0 0.0 2.3 8.2 239
16/09/2020 4:20 15.7 97 0.0 0 0.0 2.0 7.2 239
16/09/2020 4:30 15.7 97 0.0 0 0.0 1.9 6.8 237
16/09/2020 4:40 15.6 97 0.0 0 0.0 2.3 8.1 239
16/09/2020 4:50 15.5 97 0.0 0 0.0 2.5 8.9 234
16/09/2020 5:00 15.4 98 0.0 0 0.0 2.9 10.3 235
16/09/2020 5:10 15.6 98 0.0 0 0.0 2.7 9.9 236
16/09/2020 5:20 15.6 97 0.0 0 0.0 2.6 9.5 238
16/09/2020 5:30 15.5 97 0.0 0 0.0 2.7 9.5 237
16/09/2020 5:40 15.5 98 0.0 0 0.0 2.7 9.6 237
16/09/2020 5:50 15.3 98 0.0 0 0.0 2.8 10.2 235
16/09/2020 6:00 15.2 98 0.0 0 0.0 3.0 10.7 236
16/09/2020 6:10 15.1 99 11.8 0 0.0 2.9 10.5 235
16/09/2020 6:20 15.2 99 29.5 0 0.0 2.7 9.6 239
16/09/2020 6:30 15.2 99 48.1 90 0.0 2.8 10.0 235
16/09/2020 6:40 15.3 98 77.3 594 0.0 2.9 10.3 228
16/09/2020 6:50 15.3 98 91.2 310 0.0 2.9 10.3 229
16/09/2020 7:00 15.6 98 134.9 544 0.0 2.9 10.5 228
16/09/2020 7:10 15.8 97 116.8 52 0.0 2.3 8.4 227
16/09/2020 7:20 16.1 96 150.6 206 0.0 2.6 9.3 228
16/09/2020 7:30 16.4 95 267.1 600 0.0 2.2 7.8 226
16/09/2020 7:40 16.8 93 279.0 600 0.0 2.2 7.8 224
16/09/2020 7:50 17.2 91 209.3 522 0.0 1.1 3.9 232
16/09/2020 8:00 17.7 90 282.4 600 0.0 1.3 4.8 230
16/09/2020 8:10 18.0 88 299.7 600 0.0 1.9 6.8 224
16/09/2020 8:20 18.4 86 348.4 600 0.0 1.8 6.5 220
16/09/2020 8:30 18.9 83 398.7 600 0.0 1.8 6.3 215
16/09/2020 8:40 19.7 80 430.5 600 0.0 1.2 4.4 218
16/09/2020 8:50 20.3 78 458.4 600 0.0 0.7 2.5 236
16/09/2020 9:00 21.3 76 472.9 600 0.0 0.3 1.0 124
16/09/2020 9:10 22.1 73 516.8 600 0.0 0.8 3.0 209
16/09/2020 9:20 22.0 74 475.0 600 0.0 0.8 2.7 212
16/09/2020 9:30 22.3 74 520.4 600 0.0 0.8 2.9 118
16/09/2020 9:40 22.8 74 550.4 600 0.0 1.4 4.9 38
16/09/2020 9:50 22.9 73 533.4 600 0.0 1.3 4.8 42
16/09/2020 10:00 23.4 70 410.6 426 0.0 1.0 3.5 14
16/09/2020 10:10 23.4 72 369.6 364 0.0 1.4 4.9 24
16/09/2020 10:20 23.5 73 660.2 600 0.0 2.1 7.5 37
16/09/2020 10:30 24.3 69 689.9 600 0.0 2.0 7.3 34
16/09/2020 10:40 25.2 66 713.4 600 0.0 1.8 6.3 29
16/09/2020 10:50 25.3 65 672.3 600 0.0 1.9 6.7 12
16/09/2020 11:00 25.3 65 534.7 600 0.0 1.6 5.7 15
16/09/2020 11:10 26.0 64 738.6 600 0.0 1.5 5.5 22
16/09/2020 11:20 26.4 61 746.4 600 0.0 1.9 6.8 30
16/09/2020 11:30 26.9 60 738.4 600 0.0 1.7 6.0 16
16/09/2020 11:40 26.8 59 740.2 600 0.0 1.6 5.7 15
16/09/2020 11:50 27.3 60 748.4 600 0.0 2.2 7.8 28
16/09/2020 12:00 27.3 58 751.7 600 0.0 2.6 9.3 41
16/09/2020 12:10 27.2 59 750.1 600 0.0 2.1 7.6 42
16/09/2020 12:20 27.6 58 750.2 600 0.0 2.7 9.5 44
16/09/2020 12:30 27.7 57 748.4 600 0.0 2.4 8.5 44
16/09/2020 12:40 27.7 57 739.7 600 0.0 2.7 9.8 45
16/09/2020 12:50 27.6 58 734.6 600 0.0 3.1 11.0 37
16/09/2020 13:00 27.5 58 724.1 600 0.0 3.1 11.0 38
16/09/2020 13:10 27.4 59 714.3 600 0.0 4.0 14.5 55
16/09/2020 13:20 27.5 60 700.4 600 0.0 4.5 16.3 54
16/09/2020 13:30 27.6 58 684.9 600 0.0 2.6 9.3 38
16/09/2020 13:40 27.6 57 673.7 600 0.0 3.9 14.0 52
16/09/2020 13:50 27.7 58 647.8 600 0.0 4.0 14.4 36
16/09/2020 14:00 27.9 58 633.1 600 0.0 3.7 13.3 54
16/09/2020 14:10 28.1 57 607.5 600 0.0 3.3 11.8 52
16/09/2020 14:20 28.0 57 581.0 600 0.0 4.0 14.2 53
16/09/2020 14:30 27.9 58 554.0 600 0.0 3.9 14.1 60
16/09/2020 14:40 28.0 58 534.3 600 0.0 3.7 13.4 60
16/09/2020 14:50 28.1 57 534.9 600 0.0 3.9 13.9 56
16/09/2020 15:00 28.3 57 508.3 600 0.0 2.8 10.0 45
16/09/2020 15:10 27.9 60 478.8 600 0.0 3.7 13.2 34
16/09/2020 15:20 27.9 61 446.8 600 0.0 2.3 8.4 18
16/09/2020 15:30 28.3 61 392.2 600 0.0 1.9 6.7 330
16/09/2020 15:40 27.9 64 347.6 600 0.0 1.5 5.3 353
16/09/2020 15:50 27.2 67 183.2 40 0.0 1.9 6.8 8
16/09/2020 16:00 26.0 71 144.6 0 0.0 2.4 8.5 353
16/09/2020 16:10 25.6 71 201.1 276 0.0 1.5 5.4 15
16/09/2020 16:20 26.0 71 255.3 600 0.0 1.2 4.2 322
16/09/2020 16:30 26.3 69 224.9 600 0.0 2.0 7.1 299
16/09/2020 16:40 25.1 73 159.5 498 0.0 2.8 10.2 294
16/09/2020 16:50 24.6 75 122.2 146 0.0 2.8 10.2 294
16/09/2020 17:00 24.1 78 93.0 0 0.0 2.3 8.1 307
16/09/2020 17:10 23.6 78 79.2 0 0.0 2.3 8.4 319
16/09/2020 17:20 23.5 76 69.1 0 0.0 1.3 4.5 283
16/09/2020 17:30 23.5 77 63.3 2 0.0 0.8 2.7 96
16/09/2020 17:40 23.1 77 50.7 176 0.0 1.4 5.1 351
16/09/2020 17:50 23.0 77 33.0 0 0.0 1.4 5.0 292
16/09/2020 18:00 22.6 80 13.7 0 0.0 1.7 6.1 231
16/09/2020 18:10 22.3 81 0.0 0 0.0 0.8 3.0 267
16/09/2020 18:20 22.3 80 0.0 0 0.0 0.6 2.0 304
16/09/2020 18:30 22.2 81 0.0 0 0.0 0.5 1.9 213
16/09/2020 18:40 22.0 82 0.0 0 0.0 1.2 4.3 211
16/09/2020 18:50 21.8 83 0.0 0 0.0 1.2 4.5 202
16/09/2020 19:00 21.9 79 0.0 0 0.0 1.0 3.6 204
16/09/2020 19:10 21.9 80 0.0 0 0.0 0.9 3.1 226
16/09/2020 19:20 21.9 78 0.0 0 0.0 0.6 2.1 188
16/09/2020 19:30 21.9 79 0.0 0 0.0 1.0 3.5 219
16/09/2020 19:40 21.5 80 0.0 0 0.0 1.1 3.9 207
16/09/2020 19:50 21.4 80 0.0 0 0.0 1.0 3.6 203
16/09/2020 20:00 21.7 79 0.0 0 0.0 0.8 2.7 192
16/09/2020 20:10 21.4 80 0.0 0 0.0 1.8 6.5 228
16/09/2020 20:20 21.2 82 0.0 0 0.0 1.2 4.2 236
16/09/2020 20:30 20.7 83 0.0 0 0.0 1.4 5.0 231
16/09/2020 20:40 20.9 83 0.0 0 0.0 1.0 3.7 225
16/09/2020 20:50 21.2 82 0.0 0 0.0 1.5 5.2 230
16/09/2020 21:00 20.3 87 0.0 0 0.0 1.8 6.4 232
16/09/2020 21:10 20.3 86 0.0 0 0.0 0.7 2.5 233
16/09/2020 21:20 20.8 84 0.0 0 0.0 1.5 5.5 226
16/09/2020 21:30 20.2 86 0.0 0 0.0 1.5 5.2 242
16/09/2020 21:40 20.3 85 0.0 0 0.0 1.7 6.0 244
16/09/2020 21:50 20.1 86 0.0 0 0.0 1.5 5.3 248
16/09/2020 22:00 20.1 85 0.0 0 0.0 1.4 5.0 251
16/09/2020 22:10 20.0 86 0.0 0 0.0 2.0 7.1 233
16/09/2020 22:20 19.8 87 0.0 0 0.0 1.9 6.9 235
16/09/2020 22:30 19.8 87 0.0 0 0.0 1.8 6.4 243
16/09/2020 22:40 19.7 86 0.0 0 0.0 0.9 3.1 241
16/09/2020 22:50 19.9 85 0.0 0 0.0 0.6 2.1 253
16/09/2020 23:00 19.9 85 0.0 0 0.0 2.0 7.2 238
16/09/2020 23:10 18.4 93 0.0 0 0.0 2.3 8.2 243
16/09/2020 23:20 18.6 92 0.0 0 0.0 1.7 6.0 242
16/09/2020 23:30 19.2 88 0.0 0 0.0 2.2 7.8 239
16/09/2020 23:40 18.5 92 0.0 0 0.0 2.0 7.2 248
16/09/2020 23:50 19.1 89 0.0 0 0.0 2.3 8.4 241
Anterior Página 1 de 1 Siguiente

NOTA: Tipo de datos según el color:
   - Valores diarios o 10 minutos correctos
   - Valores diarios calculados a partir de un número de datos 10 minutos menor que 144 y mayor que 120, o de un número de datos semihorarios menor que 48 y mayor que 40 (caso de las estaciones de INTIA y del Ministerio)
   - Valores diez minutos estimados


Contacto        Enlaces        Aviso legal